Time;durP1;ratioP1;P1;durP2;ratioP2;P2;SDS_P1;SDS_P2;PMS_P1;PMS_P2;Temp;Humidity;BMP_temperature;BMP_pressure;BME280_temperature;BME280_humidity;BME280_pressure;Samples;Min_cycle;Max_cycle;Signal;HPM_P1;HPM_P2
2021/04/17 00:05:15;;;;;;;1999.90;999.90;;;;;;;9.78;49.24;101815.66;15929012;27;20062;-62
2021/04/17 00:12:47;;;;;;;1999.90;999.90;;;;;;;9.86;49.29;101818.91;15909664;27;20043;-60
2021/04/17 00:20:19;;;;;;;1999.90;999.90;;;;;;;9.58;49.97;101809.53;15908831;27;20039;-59
2021/04/17 00:27:51;;;;;;;1999.90;999.90;;;;;;;9.42;50.90;101801.41;15891335;27;20456;-59
2021/04/17 00:35:23;;;;;;;1999.90;999.90;;;;;;;9.51;50.89;101798.78;15925523;27;20139;-60
2021/04/17 00:42:55;;;;;;;1999.90;999.90;;;;;;;9.31;51.00;101793.47;15926408;27;20040;-61
2021/04/17 00:50:27;;;;;;;1999.90;999.90;;;;;;;9.33;50.88;101771.72;15926501;27;20071;-58
2021/04/17 00:58:01;;;;;;;1999.90;999.90;;;;;;;9.28;51.46;101771.81;15890072;27;20499;-62
2021/04/17 01:05:35;;;;;;;1999.90;999.90;;;;;;;9.09;51.50;101766.19;15907258;27;20039;-61
2021/04/17 01:13:10;;;;;;;1999.90;999.90;;;;;;;9.03;52.22;101759.00;15925877;27;20123;-60
2021/04/17 01:20:45;;;;;;;1999.90;999.90;;;;;;;8.97;52.40;101758.28;15889449;27;20047;-61
2021/04/17 01:28:19;;;;;;;1999.90;999.90;;;;;;;8.97;52.66;101755.47;15924992;27;20043;-58
2021/04/17 01:35:51;;;;;;;1999.90;999.90;;;;;;;8.96;52.79;101749.09;15923557;27;20050;-58
2021/04/17 01:43:26;;;;;;;1999.90;999.90;;;;;;;8.87;52.99;101750.03;15888390;27;20066;-62
2021/04/17 01:50:58;;;;;;;1999.90;999.90;;;;;;;9.02;52.60;101766.53;15923656;27;20043;-60
2021/04/17 01:58:33;;;;;;;1999.90;999.90;;;;;;;9.18;52.54;101768.03;15904536;28;20436;-58
2021/04/17 02:06:05;;;;;;;1999.90;999.90;;;;;;;8.79;53.55;101764.59;15922456;28;20206;-58
2021/04/17 02:13:39;;;;;;;1999.90;999.90;;;;;;;9.03;53.77;101753.44;15922944;28;20050;-61
2021/04/17 02:21:15;;;;;;;1999.90;999.90;;;;;;;8.93;54.74;101732.13;15903866;28;20160;-61
2021/04/17 02:28:48;;;;;;;1999.90;999.90;;;;;;;8.97;54.54;101722.06;15922152;28;20074;-61
2021/04/17 02:36:19;;;;;;;1999.90;999.90;;;;;;;8.82;54.27;101727.81;15886153;28;20122;-62
2021/04/17 02:43:52;;;;;;;1999.90;999.90;;;;;;;8.71;54.61;101718.75;15903129;28;20100;-59
2021/04/17 02:51:24;;;;;;;1999.90;999.90;;;;;;;8.80;54.80;101713.38;15921968;28;20035;-61
2021/04/17 02:58:56;;;;;;;1999.90;999.90;;;;;;;9.02;54.27;101705.28;15907337;27;20065;-61
2021/04/17 03:06:28;;;;;;;1999.90;999.90;;;;;;;8.82;53.94;101702.75;15915116;27;20439;-59
2021/04/17 03:14:01;;;;;;;1999.90;999.90;;;;;;;8.98;54.03;101701.47;15933127;27;20047;-57
2021/04/17 03:21:32;;;;;;;1999.90;999.90;;;;;;;8.89;53.53;101692.94;15897107;27;20047;-60
2021/04/17 03:29:05;;;;;;;1999.90;999.90;;;;;;;8.86;53.43;101681.56;15931511;27;20069;-59
2021/04/17 03:36:37;;;;;;;1999.90;999.90;;;;;;;8.89;52.62;101698.50;15894496;27;20047;-58
2021/04/17 03:44:09;;;;;;;1999.90;999.90;;;;;;;8.92;53.12;101694.28;15894837;27;20050;-60
2021/04/17 03:51:41;;;;;;;1999.90;999.90;;;;;;;9.01;52.71;101688.88;15911057;27;20039;-61
2021/04/17 03:59:13;;;;;;;1999.90;999.90;;;;;;;9.00;52.69;101698.38;15927232;27;20146;-59
2021/04/17 04:06:45;;;;;;;1999.90;999.90;;;;;;;9.17;52.59;101696.75;15928574;27;20058;-60
2021/04/17 04:14:17;;;;;;;1999.90;999.90;;;;;;;9.10;52.42;101701.84;15925812;27;20088;-59
2021/04/17 04:21:48;;;;;;;1999.90;999.90;;;;;;;9.05;52.34;101687.16;15908995;27;20043;-59
2021/04/17 04:29:21;;;;;;;1999.90;999.90;;;;;;;8.89;53.26;101684.59;15926129;27;20091;-61
2021/04/17 04:36:52;;;;;;;1999.90;999.90;;;;;;;9.20;52.02;101682.22;15927251;27;20084;-61
2021/04/17 04:44:26;;;;;;;1999.90;999.90;;;;;;;8.64;54.02;101682.09;15891095;27;20051;-60
2021/04/17 04:51:59;;;;;;;1999.90;999.90;;;;;;;9.17;52.68;101676.41;15906990;27;20541;-59
2021/04/17 04:59:33;;;;;;;1999.90;999.90;;;;;;;8.94;52.50;101675.31;15924041;27;20043;-60
2021/04/17 05:07:06;;;;;;;1999.90;999.90;;;;;;;9.02;52.19;101677.44;15888854;27;20130;-57
2021/04/17 05:14:42;;;;;;;1999.90;999.90;;;;;;;9.14;52.80;101671.44;15888886;27;20054;-58
2021/04/17 05:22:14;;;;;;;1999.90;999.90;;;;;;;9.37;52.04;101675.28;15923329;27;20047;-57
2021/04/17 05:29:47;;;;;;;1999.90;999.90;;;;;;;8.96;53.48;101675.84;15923250;27;20062;-58
2021/04/17 05:37:21;;;;;;;1999.90;999.90;;;;;;;9.15;53.78;101690.63;15923583;27;20043;-58
2021/04/17 05:44:53;;;;;;;1999.90;999.90;;;;;;;9.30;53.56;101688.78;15904693;27;20039;-57
2021/04/17 05:52:25;;;;;;;1999.90;999.90;;;;;;;9.26;53.25;101683.78;15923713;27;20107;-60
2021/04/17 05:59:57;;;;;;;1999.90;999.90;;;;;;;9.57;53.25;101688.88;15922244;28;20074;-59
2021/04/17 06:07:29;;;;;;;1999.90;999.90;;;;;;;9.71;52.94;101672.25;15903308;28;20099;-60
2021/04/17 06:15:01;;;;;;;1999.90;999.90;;;;;;;9.76;53.08;101672.97;15922269;28;20062;-61
2021/04/17 06:22:33;;;;;;;1999.90;999.90;;;;;;;9.61;53.31;101678.81;15886836;28;20078;-59
2021/04/17 06:30:07;;;;;;;1999.90;999.90;;;;;;;9.43;52.95;101679.66;15904013;28;20031;-59
2021/04/17 06:37:40;;;;;;;1999.90;999.90;;;;;;;9.66;53.35;101673.13;15913877;27;20039;-57
2021/04/17 06:45:14;;;;;;;1999.90;999.90;;;;;;;9.83;52.93;101672.59;15915153;27;20135;-59
2021/04/17 06:52:47;;;;;;;1999.90;999.90;;;;;;;9.90;51.99;101680.53;15914437;27;20110;-59
2021/04/17 07:00:24;;;;;;;1999.90;999.90;;;;;;;9.73;52.28;101686.69;15897841;27;20126;-56
2021/04/17 07:07:55;;;;;;;;;;;;;;;9.91;52.26;101680.25;15914363;27;20126;-59
2021/04/17 07:15:34;;;;;;;1999.90;999.90;;;;;;;10.06;52.61;101688.34;15935601;27;19991;-61
2021/04/17 07:23:06;;;;;;;1999.90;999.90;;;;;;;9.90;52.32;101681.41;15940011;27;20664;-57
2021/04/17 07:30:48;;;;;;;1999.90;999.90;;;;;;;10.01;52.49;101682.03;15924003;27;20339;-58
2021/04/17 07:38:25;;;;;;;1999.90;999.90;;;;;;;10.05;52.62;101683.06;15934429;27;20500;-57
2021/04/17 07:46:01;;;;;;;1999.90;999.90;;;;;;;10.06;53.51;101681.94;15931168;27;20048;-58
2021/04/17 07:53:35;;;;;;;1999.90;999.90;;;;;;;10.16;52.66;101687.34;15914020;27;20046;-60
2021/04/17 08:01:08;;;;;;;;;;;;;;;10.50;52.30;101698.16;15912389;27;20400;-62
2021/04/17 08:08:40;;;;;;;1999.90;999.90;;;;;;;10.25;52.87;101705.06;15893453;27;19920;-62
2021/04/17 08:16:12;;;;;;;1999.90;999.90;;;;;;;10.11;53.16;101701.38;15909340;27;20039;-60
2021/04/17 08:23:46;;;;;;;1999.90;999.90;;;;;;;10.35;54.18;101704.03;15893013;27;20047;-61
2021/04/17 08:31:28;;;;;;;1999.90;999.90;;;;;;;10.95;51.81;101702.00;15909055;27;20039;-56
2021/04/17 08:39:00;;;;;;;1999.90;999.90;;;;;;;11.41;51.10;101702.94;15911319;27;20102;-58
2021/04/17 08:46:40;;;;;;;1999.90;999.90;;;;;;;11.90;49.51;101704.03;15839278;28;20094;-57
2021/04/17 08:54:30;;;;;;;1999.90;999.90;;;;;;;12.32;49.44;101706.28;15841469;28;20048;-61
2021/04/17 09:02:07;;;;;;;1999.90;999.90;;;;;;;12.58;48.44;101713.97;15843010;28;20126;-62
2021/04/17 09:09:39;;;;;;;1999.90;999.90;;;;;;;12.68;48.94;101714.50;15847030;28;20075;-59
2021/04/17 09:17:37;;;;;;;1999.90;999.90;;;;;;;13.55;46.77;101706.34;15876141;28;20043;-59
2021/04/17 09:25:12;;;;;;;1999.90;999.90;;;;;;;13.25;46.44;101710.94;15843911;28;20055;-61
2021/04/17 09:32:46;;;;;;;1999.90;999.90;;;;;;;13.44;47.82;101714.25;15841931;28;20039;-58
2021/04/17 09:40:18;;;;;;;1999.90;999.90;;;;;;;14.07;45.69;101704.34;15846385;27;20035;-61
2021/04/17 09:47:56;;;;;;;1999.90;999.90;;;;;;;13.27;46.08;101706.66;15837408;28;20050;-58
2021/04/17 09:55:28;;;;;;;1999.90;999.90;;;;;;;14.06;46.33;101691.44;15854358;28;20048;-59
2021/04/17 10:03:01;;;;;;;1999.90;999.90;;;;;;;16.54;41.92;101690.41;15836579;28;20052;-60
2021/04/17 10:10:38;;;;;;;1999.90;999.90;;;;;;;15.65;42.33;101692.00;15799475;28;20044;-62
2021/04/17 10:18:12;;;;;;;1999.90;999.90;;;;;;;15.62;43.90;101678.63;15806126;28;20040;-59
2021/04/17 10:25:45;;;;;;;1999.90;999.90;;;;;;;17.11;42.06;101672.59;15769886;28;20044;-59
2021/04/17 10:33:19;;;;;;;1999.90;999.90;;;;;;;18.60;38.77;101672.44;15823097;28;20496;-59
2021/04/17 10:40:51;;;;;;;1999.90;999.90;;;;;;;18.92;36.06;101664.78;15786396;28;20189;-60
2021/04/17 10:48:25;;;;;;;1999.90;999.90;;;;;;;19.37;38.11;101664.22;15768427;28;20040;-62
2021/04/17 10:55:59;;;;;;;1999.90;999.90;;;;;;;20.69;35.81;101664.03;15812376;28;20040;-58
2021/04/17 11:03:39;;;;;;;1999.90;999.90;;;;;;;21.36;33.93;101658.59;15811087;28;20527;-62
2021/04/17 11:11:16;;;;;;;1999.90;999.90;;;;;;;20.51;33.00;101660.06;15819003;28;20066;-62
2021/04/17 11:18:48;;;;;;;1999.90;999.90;;;;;;;16.40;40.96;101659.75;15790740;28;20044;-61
2021/04/17 11:26:22;;;;;;;1999.90;999.90;;;;;;;17.51;39.38;101654.88;15803757;28;20036;-62
2021/04/17 11:33:58;;;;;;;1999.90;999.90;;;;;;;16.80;40.45;101655.47;15803748;28;20188;-61
2021/04/17 11:41:32;;;;;;;1999.90;999.90;;;;;;;15.79;43.67;101636.25;15804386;28;20119;-60
2021/04/17 11:49:05;;;;;;;1999.90;999.90;;;;;;;17.26;41.68;101626.72;15805496;28;20625;-62
2021/04/17 11:56:37;;;;;;;1999.90;999.90;;;;;;;16.29;42.99;101621.97;15807653;28;20456;-61
2021/04/17 12:04:09;;;;;;;1999.90;999.90;;;;;;;15.45;44.14;101631.75;15818761;28;20384;-58
2021/04/17 12:11:41;;;;;;;1999.90;999.90;;;;;;;16.75;41.86;101639.59;15868557;27;20116;-62
2021/04/17 12:19:13;;;;;;;1999.90;999.90;;;;;;;16.22;42.09;101626.50;15866977;28;20089;-59
2021/04/17 12:26:45;;;;;;;1999.90;999.90;;;;;;;15.81;45.05;101629.09;15865191;28;20525;-58
2021/04/17 12:34:17;;;;;;;1999.90;999.90;;;;;;;16.19;47.51;101632.84;15846592;28;20183;-58
2021/04/17 12:41:49;;;;;;;1999.90;999.90;;;;;;;16.34;48.06;101615.25;15863485;28;20047;-59
2021/04/17 12:49:22;;;;;;;1999.90;999.90;;;;;;;16.71;46.74;101611.31;15863114;28;20427;-60
2021/04/17 12:56:53;;;;;;;1999.90;999.90;;;;;;;16.53;44.21;101607.06;15862793;28;20114;-60
2021/04/17 13:04:26;;;;;;;1999.90;999.90;;;;;;;16.28;44.36;101609.06;15861078;28;20045;-61
2021/04/17 13:11:57;;;;;;;1999.90;999.90;;;;;;;16.70;43.73;101595.59;15861423;28;20047;-61
2021/04/17 13:19:29;;;;;;;1999.90;999.90;;;;;;;16.22;44.57;101595.53;15861586;28;20108;-62
2021/04/17 13:27:01;;;;;;;1999.90;999.90;;;;;;;16.94;44.48;101597.53;15844505;28;20465;-59
2021/04/17 13:34:34;;;;;;;1999.90;999.90;;;;;;;17.11;43.48;101593.66;15846686;28;20047;-60
2021/04/17 13:42:05;;;;;;;1999.90;999.90;;;;;;;16.78;44.59;101590.16;15853795;28;20055;-61
2021/04/17 13:49:38;;;;;;;1999.90;999.90;;;;;;;16.67;45.04;101590.63;15854929;28;20040;-64
2021/04/17 13:57:09;;;;;;;1999.90;999.90;;;;;;;16.59;47.38;101576.66;15855778;28;20411;-62
2021/04/17 14:04:42;;;;;;;1999.90;999.90;;;;;;;16.68;46.18;101574.59;15856992;28;20379;-58
2021/04/17 14:12:13;;;;;;;1999.90;999.90;;;;;;;17.41;44.94;101574.38;15854979;28;20179;-60
2021/04/17 14:19:46;;;;;;;1999.90;999.90;;;;;;;16.91;45.00;101577.72;15838312;28;20372;-58
2021/04/17 14:27:17;;;;;;;1999.90;999.90;;;;;;;16.91;45.76;101572.91;15843525;28;20085;-62
2021/04/17 14:34:50;;;;;;;1999.90;999.90;;;;;;;16.39;47.54;101559.53;15856309;28;20420;-59
2021/04/17 14:42:21;;;;;;;1999.90;999.90;;;;;;;17.43;46.24;101562.75;15847466;28;20063;-62
2021/04/17 14:49:56;;;;;;;1999.90;999.90;;;;;;;18.38;44.44;101563.69;15853917;28;20055;-57
2021/04/17 14:57:28;;;;;;;1999.90;999.90;;;;;;;18.11;43.63;101551.31;15844940;28;20387;-62
2021/04/17 15:05:00;;;;;;;1999.90;999.90;;;;;;;17.63;44.39;101556.06;15821097;28;20056;-63
2021/04/17 15:12:33;;;;;;;1999.90;999.90;;;;;;;17.22;45.24;101555.31;15797430;28;20360;-57
2021/04/17 15:20:07;;;;;;;1999.90;999.90;;;;;;;17.25;45.78;101550.94;15802677;28;20036;-56
2021/04/17 15:27:38;;;;;;;1999.90;999.90;;;;;;;17.30;46.18;101545.88;15832821;28;20044;-59
2021/04/17 15:35:11;;;;;;;1999.90;999.90;;;;;;;17.29;45.64;101535.75;15813114;28;20044;-58
2021/04/17 15:42:43;;;;;;;1999.90;999.90;;;;;;;16.98;46.54;101522.34;15785237;28;20101;-55
2021/04/17 15:50:15;;;;;;;1999.90;999.90;;;;;;;17.40;44.94;101521.13;15803086;28;20639;-58
2021/04/17 15:57:51;;;;;;;1999.90;999.90;;;;;;;17.15;45.45;101503.50;15802180;28;20089;-60
2021/04/17 16:21:04;;;;;;;1999.90;999.90;;;;;;;17.07;45.62;101504.47;15864452;28;20524;-61
2021/04/17 16:28:36;;;;;;;1999.90;999.90;;;;;;;17.00;45.63;101507.91;15866001;28;20039;-55
2021/04/17 16:36:09;;;;;;;1999.90;999.90;;;;;;;17.20;46.68;101501.25;15844480;28;20079;-57
2021/04/17 16:43:41;;;;;;;1999.90;999.90;;;;;;;17.26;46.30;101498.97;15861810;28;20043;-61
2021/04/17 16:51:14;;;;;;;1999.90;999.90;;;;;;;16.76;47.76;101493.88;15843837;28;20229;-56
2021/04/17 16:58:46;;;;;;;1999.90;999.90;;;;;;;16.60;48.37;101486.16;15842845;28;20039;-59
2021/04/17 17:06:19;;;;;;;1999.90;999.90;;;;;;;16.16;49.41;101487.97;15637227;22;20099;-64
2021/04/17 17:13:50;;;;;;;1999.90;999.90;;;;;;;16.15;49.32;101483.47;15645086;28;20465;-65
2021/04/17 17:21:23;;;;;;;1999.90;999.90;;;;;;;16.27;50.52;101489.13;15660129;28;20047;-61
2021/04/17 17:28:55;;;;;;;1999.90;999.90;;;;;;;16.31;49.89;101498.50;15662685;28;20136;-63
2021/04/17 17:36:27;;;;;;;1999.90;999.90;;;;;;;16.22;49.91;101511.88;15680163;28;20072;-59
2021/04/17 17:43:59;;;;;;;1999.90;999.90;;;;;;;16.12;50.73;101509.53;15661782;28;20530;-57
2021/04/17 17:51:32;;;;;;;1999.90;999.90;;;;;;;15.84;50.59;101515.88;15679916;28;20396;-59
2021/04/17 17:59:04;;;;;;;1999.90;999.90;;;;;;;15.57;50.79;101506.03;15677704;28;20049;-61
2021/04/17 18:06:37;;;;;;;1999.90;999.90;;;;;;;15.37;50.08;101508.91;15677888;28;20107;-63
2021/04/17 18:14:08;;;;;;;1999.90;999.90;;;;;;;15.52;49.94;101516.66;15678321;28;20049;-62
2021/04/17 18:21:41;;;;;;;1999.90;999.90;;;;;;;15.49;50.14;101520.19;15609401;28;20046;-61
2021/04/17 18:29:13;;;;;;;1999.90;999.90;;;;;;;15.27;50.33;101536.28;15622676;28;20037;-58
2021/04/17 18:36:45;;;;;;;1999.90;999.90;;;;;;;14.75;49.68;101529.47;15615436;28;20285;-57
2021/04/17 18:44:19;;;;;;;1999.90;999.90;;;;;;;14.80;49.19;101551.72;15614114;28;20045;-57
2021/04/17 18:51:51;;;;;;;1999.90;999.90;;;;;;;14.72;49.34;101551.44;15612374;28;20034;-61
2021/04/17 18:59:23;;;;;;;1999.90;999.90;;;;;;;14.47;50.35;101565.66;15612203;28;20037;-55
2021/04/17 19:06:56;;;;;;;1999.90;999.90;;;;;;;14.53;50.17;101565.13;15608399;28;20045;-61
2021/04/17 19:14:29;;;;;;;;;;;;;;;14.44;50.18;101567.13;15611356;28;20068;-61
2021/04/17 19:22:02;;;;;;;1999.90;999.90;;;;;;;14.28;50.67;101563.25;15628336;28;19921;-58
2021/04/17 19:29:33;;;;;;;1999.90;999.90;;;;;;;14.42;50.80;101563.84;15624606;28;20041;-63
2021/04/17 19:37:06;;;;;;;1999.90;999.90;;;;;;;14.23;51.69;101560.63;15606487;28;20034;-63
2021/04/17 19:44:38;;;;;;;1999.90;999.90;;;;;;;14.23;52.22;101575.47;15587024;28;20458;-64
2021/04/17 19:52:10;;;;;;;1999.90;999.90;;;;;;;13.02;61.72;101592.50;15606199;28;20041;-62
2021/04/17 19:59:42;;;;;;;1999.90;999.90;;;;;;;12.91;62.94;101597.59;15622689;28;20037;-64
2021/04/17 20:07:14;;;;;;;1999.90;999.90;;;;;;;12.44;67.42;101585.31;15621538;28;20490;-65
2021/04/17 20:14:46;;;;;;;1999.90;999.90;;;;;;;12.32;68.74;101579.50;15621936;28;20067;-63
2021/04/17 20:22:18;;;;;;;1999.90;999.90;;;;;;;12.51;68.98;101588.47;15603848;28;20164;-66
2021/04/17 20:29:50;;;;;;;1999.90;999.90;;;;;;;12.28;71.12;101590.50;15603544;28;20038;-62
2021/04/17 20:37:24;;;;;;;1999.90;999.90;;;;;;;12.02;73.56;101593.22;15602909;28;20613;-63
2021/04/17 20:44:56;;;;;;;1999.90;999.90;;;;;;;12.42;72.53;101582.03;15624550;28;20060;-62
2021/04/17 20:52:28;;;;;;;1999.90;999.90;;;;;;;12.71;71.11;101568.25;15600084;28;20045;-62
2021/04/17 21:00:00;;;;;;;1999.90;999.90;;;;;;;12.80;71.38;101567.41;15619063;28;20045;-63
2021/04/17 21:07:32;;;;;;;1999.90;999.90;;;;;;;12.77;70.79;101574.50;15602258;28;20084;-64
2021/04/17 21:15:06;;;;;;;1999.90;999.90;;;;;;;12.38;74.24;101575.41;15619165;28;20045;-63
2021/04/17 21:22:39;;;;;;;1999.90;999.90;;;;;;;12.48;73.80;101575.09;15600336;28;20413;-62
2021/04/17 21:30:11;;;;;;;1999.90;999.90;;;;;;;12.53;72.36;101579.75;15617706;28;20573;-64
2021/04/17 21:37:44;;;;;;;1999.90;999.90;;;;;;;12.58;72.01;101580.41;15557901;28;20041;-63
2021/04/17 21:45:17;;;;;;;1999.90;999.90;;;;;;;12.61;70.97;101582.56;15632976;28;20052;-64
2021/04/17 21:52:49;;;;;;;1999.90;999.90;;;;;;;11.74;74.16;101592.53;15651134;28;20061;-64
2021/04/17 22:00:38;;;;;;;1999.90;999.90;;;;;;;11.55;73.03;101578.75;15594147;28;20060;-64
2021/04/17 22:08:14;;;;;;;1999.90;999.90;;;;;;;11.23;73.35;101585.41;15635720;28;20037;-60
2021/04/17 22:15:46;;;;;;;1999.90;999.90;;;;;;;11.04;73.41;101586.72;15594374;28;20049;-62
2021/04/17 22:23:18;;;;;;;1999.90;999.90;;;;;;;10.69;74.41;101590.03;15588324;28;20362;-61
2021/04/17 22:30:50;;;;;;;1999.90;999.90;;;;;;;10.83;73.51;101591.97;15617161;28;20050;-61
2021/04/17 22:38:22;;;;;;;1999.90;999.90;;;;;;;10.46;74.58;101599.47;15587397;28;20045;-62
2021/04/17 22:45:54;;;;;;;1999.90;999.90;;;;;;;10.41;74.26;101594.81;15635081;28;20060;-62
2021/04/17 22:53:26;;;;;;;1999.90;999.90;;;;;;;10.17;75.13;101599.72;15615541;28;20107;-62
2021/04/17 23:00:57;;;;;;;1999.90;999.90;;;;;;;9.80;76.14;101601.56;15634378;28;20041;-63
2021/04/17 23:08:30;;;;;;;1999.90;999.90;;;;;;;10.11;74.61;101596.22;15570060;28;20103;-63
2021/04/17 23:16:02;;;;;;;1999.90;999.90;;;;;;;10.23;72.45;101603.28;15634036;28;20045;-63
2021/04/17 23:23:35;;;;;;;1999.90;999.90;;;;;;;9.81;74.05;101599.59;15624489;28;20041;-59
2021/04/17 23:31:06;;;;;;;1999.90;999.90;;;;;;;10.14;71.98;101586.41;15623171;28;20045;-60
2021/04/17 23:38:39;;;;;;;1999.90;999.90;;;;;;;10.20;71.65;101596.31;15622473;28;20041;-63
2021/04/17 23:46:10;;;;;;;1999.90;999.90;;;;;;;10.22;71.88;101590.50;15622614;28;20064;-60
2021/04/17 23:53:43;;;;;;;1999.90;999.90;;;;;;;10.39;71.82;101594.28;15621411;28;20045;-65
